Midland, Nebraska
Current Conditions -  °F | °C
As of 3:53 AM on Sunday 21 Dec 2014 (Local Time) from KGRI Reporting Station
Haze Haze  
Wind Chill: 22°   Ceiling: Unl
Heat Index: 28°   Visibility: 5mi
Dew Point: 27°   Wind: 6mph
Humidity: 96%   Direction: 200°SSW
Pressure: 29.88"   Gusts: NA
Location:  41.1769°N, 98.1165°W
Report Text: KGRI 210953Z AUTO 20005KT 5SM BR CLR M02/M03 A2988 RMK AO2 SLP139 I1000 T10221028
Loading
Personal Weather Stations






























Interactive Weather Map New forecast layout! Learn more

10-Day Weather Forecast

Advertisements
Track Severe Weather on mobile